Time;durP1;ratioP1;P1;durP2;ratioP2;P2;SDS_P1;SDS_P2;PMS_P1;PMS_P2;Temp;Humidity;BMP_temperature;BMP_pressure;BME280_temperature;BME280_humidity;BME280_pressure;Samples;Min_cycle;Max_cycle;Signal;HPM_P1;HPM_P2
2024/04/05 00:01:52;;;;;;;2.03;1.20;;;;;;;1.95;47.42;100109.03;4884505;29;20049;-72
2024/04/05 00:04:18;;;;;;;2.22;1.50;;;;;;;2.17;47.90;100149.09;4900834;29;20075;-72
2024/04/05 00:06:44;;;;;;;2.85;1.40;;;;;;;1.93;47.49;100103.88;4886782;29;20046;-72
2024/04/05 00:09:13;;;;;;;6.53;3.35;;;;;;;2.15;47.36;100148.16;4902878;29;20076;-72
2024/04/05 00:11:40;;;;;;;2.85;1.33;;;;;;;2.14;47.76;100158.38;4870247;29;20048;-71
2024/04/05 00:14:06;;;;;;;2.70;1.50;;;;;;;2.18;47.77;100153.41;4888880;29;20112;-72
2024/04/05 00:16:32;;;;;;;1.50;1.40;;;;;;;2.00;47.57;100146.00;4871010;29;20163;-72
2024/04/05 00:18:58;;;;;;;1.70;1.30;;;;;;;1.98;47.44;100147.63;4885693;29;20516;-72
2024/04/05 00:21:24;;;;;;;2.35;1.30;;;;;;;2.04;47.91;100152.97;4884795;29;20056;-73
2024/04/05 00:23:50;;;;;;;2.78;1.70;;;;;;;1.91;47.98;100114.88;4874378;29;20415;-72
2024/04/05 00:26:17;;;;;;;1.40;1.30;;;;;;;2.15;47.77;100154.97;4875885;29;20115;-71
2024/04/05 00:28:43;;;;;;;2.05;1.52;;;;;;;1.94;47.50;100112.41;4902151;29;20111;-72
2024/04/05 00:31:09;;;;;;;2.20;1.50;;;;;;;1.89;47.61;100106.25;4898780;29;20538;-72
2024/04/05 00:33:36;;;;;;;2.75;1.80;;;;;;;2.23;47.49;100162.09;4884772;29;20044;-72
2024/04/05 00:36:03;;;;;;;1.30;1.20;;;;;;;2.28;47.39;100171.66;4887674;29;20075;-71
2024/04/05 00:38:29;;;;;;;2.67;1.60;;;;;;;2.16;48.12;100157.63;4869752;29;20052;-71
2024/04/05 00:40:55;;;;;;;2.10;1.50;;;;;;;2.24;47.50;100160.41;4886225;29;20047;-73
2024/04/05 00:43:22;;;;;;;3.83;1.70;;;;;;;2.33;47.77;100181.22;4883785;29;20043;-73
2024/04/05 00:45:50;;;;;;;1.75;1.30;;;;;;;2.18;47.56;100153.41;4885388;29;20068;-72
2024/04/05 00:48:19;;;;;;;1.52;1.23;;;;;;;2.18;47.92;100147.38;4885712;29;20056;-73
2024/04/05 00:50:47;;;;;;;2.22;1.27;;;;;;;2.34;47.65;100172.69;4886152;29;20427;-72
2024/04/05 00:53:23;;;;;;;1.73;1.05;;;;;;;2.24;47.76;100145.00;4884589;29;20527;-74
2024/04/05 00:55:53;;;;;;;1.58;1.20;;;;;;;2.40;47.39;100196.00;4853214;29;20048;-72
2024/04/05 00:58:20;;;;;;;1.90;1.38;;;;;;;2.35;47.43;100195.00;4902028;29;20048;-71
2024/04/05 01:00:47;;;;;;;3.17;1.17;;;;;;;2.17;47.25;100184.16;4886299;29;20051;-73
2024/04/05 01:03:13;;;;;;;1.10;1.00;;;;;;;2.21;47.48;100197.13;4872996;29;20057;-73
2024/04/05 01:05:40;;;;;;;1.85;1.20;;;;;;;2.08;47.28;100195.91;4900022;29;20085;-71
2024/04/05 01:08:08;;;;;;;2.10;1.30;;;;;;;2.16;47.72;100206.41;4873514;29;20041;-73
2024/04/05 01:10:35;;;;;;;1.80;1.45;;;;;;;2.15;47.41;100199.53;4868871;29;20071;-73
2024/04/05 01:13:03;;;;;;;2.05;1.20;;;;;;;2.03;47.28;100186.28;4899298;29;20071;-72
2024/04/05 01:15:31;;;;;;;1.30;1.10;;;;;;;2.10;47.19;100194.22;4852395;29;20539;-72
2024/04/05 01:18:05;;;;;;;1.50;1.33;;;;;;;2.05;47.37;100175.25;4869504;29;20528;-71
2024/04/05 01:20:33;;;;;;;2.33;1.20;;;;;;;2.24;47.34;100196.38;4884980;29;20539;-70
2024/04/05 01:23:02;;;;;;;1.35;1.10;;;;;;;2.04;47.15;100170.94;4885944;29;20041;-70
2024/04/05 01:25:29;;;;;;;1.88;1.23;;;;;;;2.21;46.75;100203.97;4884571;29;20100;-71
2024/04/05 01:27:56;;;;;;;1.50;1.25;;;;;;;2.18;46.78;100196.16;4870193;29;20452;-71
2024/04/05 01:30:23;;;;;;;1.60;1.30;;;;;;;2.11;47.11;100203.66;4886284;29;20052;-71
2024/04/05 01:32:53;;;;;;;1.48;1.30;;;;;;;2.09;46.81;100199.31;4869031;29;20071;-73
2024/04/05 01:35:20;;;;;;;1.88;1.40;;;;;;;1.88;46.91;100174.72;4868753;29;20123;-73
2024/04/05 01:37:46;;;;;;;1.58;1.40;;;;;;;1.95;47.55;100199.75;4887000;29;20056;-73
2024/04/05 01:40:13;;;;;;;2.72;1.42;;;;;;;1.84;47.05;100172.00;4886465;29;20056;-73
2024/04/05 01:42:39;;;;;;;3.55;1.75;;;;;;;2.00;47.69;100209.28;4869170;29;20460;-72
2024/04/05 01:45:06;;;;;;;3.63;2.35;;;;;;;1.95;47.62;100193.75;4883116;29;20521;-74
2024/04/05 01:47:33;;;;;;;4.22;2.08;;;;;;;2.06;47.62;100206.91;4870200;29;20048;-74
2024/04/05 01:50:01;;;;;;;2.33;1.50;;;;;;;2.12;47.59;100209.69;4869264;29;20092;-72
2024/04/05 01:52:28;;;;;;;1.77;1.60;;;;;;;2.05;47.09;100205.19;4884452;29;20596;-73
2024/04/05 01:54:55;;;;;;;2.17;1.95;;;;;;;1.95;46.96;100188.59;4869024;29;20518;-73
2024/04/05 01:57:22;;;;;;;1.55;1.25;;;;;;;2.05;46.84;100212.88;4899851;29;20045;-73
2024/04/05 01:59:49;;;;;;;2.30;1.42;;;;;;;2.04;47.02;100214.59;4867889;29;20052;-72
2024/04/05 02:02:16;;;;;;;3.67;1.70;;;;;;;2.15;46.88;100221.75;4868773;29;20039;-73
2024/04/05 02:04:43;;;;;;;3.35;1.40;;;;;;;2.10;47.20;100204.50;4885704;29;20048;-72
2024/04/05 02:07:09;;;;;;;1.67;1.40;;;;;;;2.28;47.15;100218.75;4853518;29;20041;-74
2024/04/05 02:09:35;;;;;;;1.75;1.40;;;;;;;2.10;46.60;100196.78;4884563;29;20323;-72
2024/04/05 02:12:05;;;;;;;1.67;1.50;;;;;;;1.92;46.46;100167.97;4858356;29;20045;-74
2024/04/05 02:14:33;;;;;;;1.48;1.20;;;;;;;2.28;46.71;100225.59;4884241;29;20094;-72
2024/04/05 02:16:59;;;;;;;4.53;1.63;;;;;;;2.13;46.79;100201.16;4884293;29;20076;-71
2024/04/05 02:19:26;;;;;;;1.42;1.30;;;;;;;2.25;46.54;100228.94;4882573;29;20055;-71
2024/04/05 02:21:53;;;;;;;1.65;1.30;;;;;;;2.22;46.97;100249.38;4852713;29;20048;-70
2024/04/05 02:24:19;;;;;;;2.00;1.48;;;;;;;2.19;46.96;100237.31;4886188;29;20045;-71
2024/04/05 02:26:45;;;;;;;5.10;1.70;;;;;;;2.25;46.69;100250.34;4852969;29;20048;-70
2024/04/05 02:29:11;;;;;;;7.28;2.30;;;;;;;2.27;46.97;100252.97;4883969;29;20770;-71
2024/04/05 02:31:40;;;;;;;1.67;1.45;;;;;;;2.19;46.62;100227.06;4899198;29;20124;-71
2024/04/05 02:34:06;;;;;;;2.13;1.45;;;;;;;2.31;46.95;100254.81;4853969;29;20076;-72
2024/04/05 02:36:33;;;;;;;3.38;1.58;;;;;;;2.21;46.48;100232.22;4869132;29;20500;-73
2024/04/05 02:38:59;;;;;;;2.70;1.20;;;;;;;2.23;45.83;100256.25;4883911;29;20048;-71
2024/04/05 02:41:25;;;;;;;1.60;1.00;;;;;;;1.91;46.33;100259.50;4871995;29;20053;-71
2024/04/05 02:43:51;;;;;;;1.30;1.10;;;;;;;1.84;47.09;100259.25;4884828;29;20688;-71
2024/04/05 02:46:17;;;;;;;4.32;1.33;;;;;;;1.73;45.81;100264.03;4866336;29;20576;-71
2024/04/05 02:48:43;;;;;;;1.60;1.10;;;;;;;1.61;46.72;100256.78;4883374;29;20052;-71
2024/04/05 02:51:09;;;;;;;1.33;1.23;;;;;;;1.63;46.60;100268.81;4884242;29;20040;-71
2024/04/05 02:53:35;;;;;;;1.33;1.10;;;;;;;1.48;46.97;100258.91;4883684;29;20059;-73
2024/04/05 02:56:01;;;;;;;1.33;1.20;;;;;;;1.54;46.77;100265.06;4884700;29;20137;-71
2024/04/05 02:58:27;;;;;;;1.55;1.10;;;;;;;1.55;46.86;100251.41;4856445;29;20120;-72
2024/04/05 03:00:57;;;;;;;1.73;1.33;;;;;;;1.58;47.17;100257.53;4885680;29;20092;-72
2024/04/05 03:03:23;;;;;;;1.85;1.27;;;;;;;1.78;46.57;100281.31;4884452;29;20044;-73
2024/04/05 03:05:49;;;;;;;4.57;1.25;;;;;;;1.76;46.28;100269.28;4884607;29;20079;-71
2024/04/05 03:08:16;;;;;;;1.00;0.90;;;;;;;1.87;46.30;100282.47;4881647;29;20093;-71
2024/04/05 03:10:42;;;;;;;1.98;1.50;;;;;;;1.75;46.55;100255.56;4898147;29;20048;-74
2024/04/05 03:13:08;;;;;;;1.38;1.27;;;;;;;1.80;46.28;100266.84;4882742;29;20150;-72
2024/04/05 03:15:35;;;;;;;1.63;1.33;;;;;;;1.68;45.94;100239.91;4867692;29;20084;-73
2024/04/05 03:18:02;;;;;;;1.77;1.20;;;;;;;1.87;46.28;100269.63;4899517;29;20598;-72
2024/04/05 03:20:29;;;;;;;1.88;1.50;;;;;;;1.95;46.22;100286.16;4897797;29;20040;-72
2024/04/05 03:22:56;;;;;;;4.40;1.35;;;;;;;1.94;46.25;100299.81;4886120;29;20040;-72
2024/04/05 03:25:22;;;;;;;1.70;1.60;;;;;;;1.82;46.30;100278.88;4882874;29;20120;-71
2024/04/05 03:27:49;;;;;;;2.17;1.35;;;;;;;1.95;46.41;100305.00;4886374;29;20075;-72
2024/04/05 03:30:16;;;;;;;4.60;1.63;;;;;;;1.83;45.92;100296.00;4883035;29;20500;-74
2024/04/05 03:32:42;;;;;;;1.67;1.40;;;;;;;1.94;46.13;100310.97;4883928;29;20048;-71
2024/04/05 03:35:09;;;;;;;2.00;1.60;;;;;;;1.86;46.27;100291.00;4884928;29;20051;-73
2024/04/05 03:37:36;;;;;;;1.65;1.50;;;;;;;1.95;45.97;100311.81;4896255;29;20053;-72
2024/04/05 03:40:03;;;;;;;1.65;1.50;;;;;;;1.92;45.43;100309.16;4882806;29;20043;-74
2024/04/05 03:42:31;;;;;;;2.60;1.70;;;;;;;1.98;46.41;100309.38;4869851;29;20086;-73
2024/04/05 03:44:57;;;;;;;2.92;1.50;;;;;;;2.07;46.31;100319.06;4870142;29;20149;-74
2024/04/05 03:47:23;;;;;;;3.75;1.58;;;;;;;2.08;46.25;100311.44;4871582;29;20049;-73
2024/04/05 03:49:50;;;;;;;2.20;1.48;;;;;;;1.97;46.01;100299.91;4869280;29;20052;-80
2024/04/05 03:52:16;;;;;;;1.80;1.30;;;;;;;1.92;45.90;100296.31;4885104;29;20568;-71
2024/04/05 03:54:43;;;;;;;2.80;1.40;;;;;;;2.21;46.04;100330.66;4868496;29;20124;-74
2024/04/05 03:57:10;;;;;;;3.30;1.75;;;;;;;2.30;46.00;100330.13;4870004;29;20041;-72
2024/04/05 03:59:36;;;;;;;2.42;1.67;;;;;;;2.20;45.54;100328.06;4884401;29;20077;-72
2024/04/05 04:02:02;;;;;;;1.70;1.27;;;;;;;2.27;45.67;100342.88;4869345;29;20056;-71
2024/04/05 04:04:28;;;;;;;2.95;1.30;;;;;;;2.21;45.96;100330.66;4868844;29;20692;-72
2024/04/05 04:06:54;;;;;;;1.70;1.40;;;;;;;2.22;45.77;100337.56;4883879;29;20149;-72
2024/04/05 04:09:21;;;;;;;3.17;1.20;;;;;;;1.95;45.67;100327.22;4853538;29;20051;-73
2024/04/05 04:11:48;;;;;;;1.77;1.58;;;;;;;2.02;46.07;100339.47;4883987;29;20184;-76
2024/04/05 04:14:14;;;;;;;3.55;1.48;;;;;;;2.11;46.07;100354.31;4885662;29;20038;-71
2024/04/05 04:16:43;;;;;;;1.88;1.20;;;;;;;2.13;45.88;100344.97;4886960;29;20049;-71
2024/04/05 04:19:11;;;;;;;3.40;1.48;;;;;;;2.04;46.08;100334.38;4855479;29;20049;-73
2024/04/05 04:21:37;;;;;;;5.45;1.30;;;;;;;2.20;45.89;100352.06;4855006;29;20069;-71
2024/04/05 04:24:05;;;;;;;2.03;1.20;;;;;;;2.21;45.86;100355.50;4870147;29;20139;-73
2024/04/05 04:26:32;;;;;;;2.00;1.33;;;;;;;2.28;45.63;100367.72;4872849;29;20037;-73
2024/04/05 04:28:58;;;;;;;3.67;1.63;;;;;;;2.27;45.79;100365.97;4869429;29;20072;-74
2024/04/05 04:31:25;;;;;;;2.40;1.17;;;;;;;2.17;45.80;100326.28;4867087;29;20041;-73
2024/04/05 04:33:54;;;;;;;4.40;1.50;;;;;;;2.18;45.00;100311.72;4884445;29;20114;-73
2024/04/05 04:36:21;;;;;;;2.13;1.60;;;;;;;2.45;45.59;100355.44;4883841;29;20040;-73
2024/04/05 04:38:54;;;;;;;3.05;1.70;;;;;;;2.54;45.07;100349.72;4883730;29;20053;-73
2024/04/05 04:41:20;;;;;;;2.30;1.80;;;;;;;2.54;44.94;100349.72;4868549;29;20041;-73
2024/04/05 04:43:46;;;;;;;3.35;1.63;;;;;;;2.67;45.13;100380.13;4884376;29;20113;-73
2024/04/05 04:46:14;;;;;;;1.88;1.30;;;;;;;2.65;44.59;100368.94;4884824;29;20508;-71
2024/04/05 04:48:40;;;;;;;5.45;1.50;;;;;;;2.52;45.08;100365.09;4870857;29;20044;-73
2024/04/05 04:51:06;;;;;;;4.45;1.50;;;;;;;2.52;44.71;100365.09;4868828;29;21829;-72
2024/04/05 04:53:32;;;;;;;2.08;1.42;;;;;;;2.41;44.69;100384.44;4867348;29;20093;-72
2024/04/05 04:55:59;;;;;;;3.47;1.70;;;;;;;2.30;45.23;100373.78;4868553;29;20041;-72
2024/04/05 04:58:28;;;;;;;6.57;2.20;;;;;;;2.24;44.70;100366.72;4868933;29;20504;-75
2024/04/05 05:00:56;;;;;;;7.28;1.60;;;;;;;2.19;45.29;100363.16;4885015;29;20136;-72
2024/04/05 05:03:22;;;;;;;2.25;1.20;;;;;;;2.23;44.86;100376.97;4870077;29;20409;-73
2024/04/05 05:05:48;;;;;;;4.13;1.10;;;;;;;2.18;44.96;100368.22;4868111;29;21752;-74
2024/04/05 05:08:14;;;;;;;1.50;1.20;;;;;;;2.33;44.83;100379.00;4867768;29;20137;-72
2024/04/05 05:10:42;;;;;;;2.05;1.10;;;;;;;2.35;44.61;100376.50;4883466;29;20135;-72
2024/04/05 05:13:11;;;;;;;1.88;1.55;;;;;;;2.51;44.99;100395.88;4883511;29;20161;-73
2024/04/05 05:15:42;;;;;;;0.90;0.80;;;;;;;2.52;44.46;100382.22;4869457;29;20052;-73
2024/04/05 05:18:09;;;;;;;0.98;0.80;;;;;;;2.56;44.70;100374.66;4852010;29;20048;-73
2024/04/05 05:20:36;;;;;;;2.15;1.00;;;;;;;2.79;44.31;100404.47;4871463;29;20061;-72
2024/04/05 05:23:02;;;;;;;1.45;0.93;;;;;;;2.68;43.84;100393.84;4883101;29;20041;-73
2024/04/05 05:25:28;;;;;;;1.30;1.00;;;;;;;2.71;43.21;100399.09;4867927;29;21820;-71
2024/04/05 05:27:54;;;;;;;1.52;0.90;;;;;;;2.78;43.77;100410.44;4872714;29;20500;-73
2024/04/05 05:30:20;;;;;;;2.47;1.15;;;;;;;2.62;43.83;100391.97;4851844;29;20037;-74
2024/04/05 05:32:48;;;;;;;2.88;1.30;;;;;;;2.93;43.94;100423.81;4872633;29;20053;-71
2024/04/05 05:35:14;;;;;;;4.35;1.40;;;;;;;2.82;43.31;100399.44;4870133;29;20045;-72
2024/04/05 05:37:41;;;;;;;2.22;1.40;;;;;;;2.94;43.77;100412.72;4866799;29;20089;-72
2024/04/05 05:40:08;;;;;;;4.47;1.60;;;;;;;2.96;43.20;100428.16;4868823;29;20044;-73
2024/04/05 05:42:34;;;;;;;2.08;1.23;;;;;;;2.98;43.41;100426.53;4867426;29;20045;-73
2024/04/05 05:45:02;;;;;;;2.05;1.40;;;;;;;2.84;43.34;100426.06;4884008;29;20048;-73
2024/04/05 05:47:32;;;;;;;2.83;1.38;;;;;;;2.89;43.27;100436.50;4868812;29;20045;-73
2024/04/05 05:49:58;;;;;;;2.20;1.10;;;;;;;2.80;43.26;100427.69;4867051;29;20416;-74
2024/04/05 05:52:24;;;;;;;3.75;1.25;;;;;;;2.90;43.50;100441.72;4868546;29;20071;-73
2024/04/05 05:54:51;;;;;;;1.40;1.30;;;;;;;2.85;43.31;100420.13;4866988;29;20067;-74
2024/04/05 05:57:17;;;;;;;5.10;1.27;;;;;;;3.05;43.25;100427.59;4882416;29;20100;-73
2024/04/05 05:59:43;;;;;;;1.70;1.30;;;;;;;2.77;42.82;100383.88;4868990;29;20045;-74
2024/04/05 06:02:09;;;;;;;1.50;1.13;;;;;;;3.09;43.13;100450.00;4883164;29;20091;-72
2024/04/05 06:04:35;;;;;;;1.73;1.27;;;;;;;3.01;42.70;100436.91;4868085;29;20378;-73
2024/04/05 06:07:01;;;;;;;1.83;1.00;;;;;;;3.13;42.90;100441.56;4867913;29;20044;-73
2024/04/05 06:09:28;;;;;;;2.90;1.23;;;;;;;3.21;42.55;100454.66;4882487;29;20053;-74
2024/04/05 06:11:54;;;;;;;2.03;1.50;;;;;;;3.23;42.53;100451.31;4881407;29;20416;-73
2024/04/05 06:14:20;;;;;;;1.77;1.40;;;;;;;3.25;42.26;100459.94;4883292;29;20063;-73
2024/04/05 06:16:48;;;;;;;3.08;1.35;;;;;;;3.38;42.71;100473.22;4882247;29;20067;-73
2024/04/05 06:19:14;;;;;;;1.33;1.23;;;;;;;3.27;42.90;100445.44;4882507;29;20041;-72
2024/04/05 06:21:40;;;;;;;1.27;1.10;;;;;;;3.64;42.20;100475.72;4881832;29;20054;-73
2024/04/05 06:24:06;;;;;;;2.03;1.17;;;;;;;3.67;42.06;100450.03;4867058;29;20056;-74
2024/04/05 06:26:35;;;;;;;1.83;1.00;;;;;;;3.88;41.82;100468.69;4868995;29;20117;-72
2024/04/05 06:29:02;;;;;;;1.60;1.10;;;;;;;4.03;42.38;100468.28;4869002;29;20072;-74
2024/04/05 06:31:28;;;;;;;5.47;1.90;;;;;;;4.18;41.47;100482.44;4881113;29;20045;-74
2024/04/05 06:33:55;;;;;;;1.80;1.60;;;;;;;4.05;41.69;100458.03;4882536;29;20041;-75
2024/04/05 06:36:22;;;;;;;2.00;1.10;;;;;;;4.17;41.45;100484.13;4866725;29;20516;-74
2024/04/05 06:38:48;;;;;;;1.38;1.25;;;;;;;3.98;41.31;100469.84;4882094;29;20045;-74
2024/04/05 06:41:14;;;;;;;2.95;1.20;;;;;;;3.97;41.48;100481.00;4885767;29;20140;-72
2024/04/05 06:43:41;;;;;;;1.60;1.30;;;;;;;3.94;40.59;100468.03;4885639;29;20384;-73
2024/04/05 06:46:08;;;;;;;2.13;1.20;;;;;;;4.19;41.90;100485.03;4899536;29;20044;-74
2024/04/05 06:48:35;;;;;;;2.45;1.50;;;;;;;4.37;41.30;100483.78;4869044;29;20036;-72
2024/04/05 06:51:10;;;;;;;1.80;1.30;;;;;;;4.52;41.31;100488.50;4885663;29;20084;-74
2024/04/05 06:53:36;;;;;;;2.22;1.00;;;;;;;4.53;40.79;100478.22;4899787;29;20044;-73
2024/04/05 06:56:02;;;;;;;2.17;1.27;;;;;;;4.70;40.66;100475.22;4884597;29;20503;-73
2024/04/05 06:58:28;;;;;;;1.83;1.20;;;;;;;5.07;40.37;100501.09;4885704;29;20040;-74
2024/04/05 07:00:54;;;;;;;25.65;2.65;;;;;;;5.23;40.65;100473.91;4884389;29;20558;-73
2024/04/05 07:03:23;;;;;;;2.85;1.20;;;;;;;5.48;40.41;100484.81;4884386;29;20124;-76
2024/04/05 07:05:59;;;;;;;2.00;1.10;;;;;;;5.55;39.75;100479.81;4883684;29;20044;-74
2024/04/05 07:08:32;;;;;;;4.60;1.20;;;;;;;5.60;39.36;100454.13;4884003;29;20189;-73
2024/04/05 07:10:58;;;;;;;2.60;1.13;;;;;;;5.88;39.41;100484.00;4884026;29;20056;-74
2024/04/05 07:13:25;;;;;;;5.05;1.30;;;;;;;5.65;38.57;100459.38;4899231;29;20043;-73
2024/04/05 07:15:52;;;;;;;2.95;1.10;;;;;;;5.75;39.33;100474.22;4899782;29;20059;-74
2024/04/05 07:18:24;;;;;;;4.88;1.30;;;;;;;5.84;38.93;100496.84;4885183;29;20045;-75
2024/04/05 07:20:51;;;;;;;;;;;;;;;5.85;38.69;100490.78;4886207;29;20526;-72
2024/04/05 07:23:18;;;;;;;13.27;1.85;;;;;;;5.70;39.26;100492.22;4869625;29;20011;-73
2024/04/05 07:25:44;;;;;;;3.30;1.70;;;;;;;5.51;39.02;100465.13;4884638;29;20048;-74
2024/04/05 07:28:11;;;;;;;1.42;1.30;;;;;;;5.73;39.01;100481.09;4885624;29;20044;-74
2024/04/05 07:30:38;;;;;;;4.38;1.40;;;;;;;5.92;39.11;100490.09;4867474;29;20101;-74
2024/04/05 07:33:05;;;;;;;7.18;1.95;;;;;;;6.16;38.49;100501.81;4873250;29;20044;-72
2024/04/05 07:35:33;;;;;;;4.82;1.65;;;;;;;6.25;38.15;100495.97;4852958;29;20047;-73
2024/04/05 07:37:59;;;;;;;3.25;1.30;;;;;;;6.40;38.10;100500.56;4884529;29;20063;-74
2024/04/05 07:40:26;;;;;;;4.82;1.45;;;;;;;6.52;37.88;100477.50;4884253;29;20048;-73
2024/04/05 07:42:56;;;;;;;2.42;1.77;;;;;;;6.73;37.73;100468.44;4884321;29;20095;-73
2024/04/05 07:45:27;;;;;;;5.38;1.63;;;;;;;6.97;37.24;100485.19;4868462;29;20045;-74
2024/04/05 07:47:53;;;;;;;4.25;2.00;;;;;;;6.83;37.33;100451.34;4883769;29;20037;-74
2024/04/05 07:50:19;;;;;;;3.88;1.80;;;;;;;6.91;36.58;100473.03;4883871;29;20044;-73
2024/04/05 07:52:48;;;;;;;4.40;1.88;;;;;;;7.18;36.90;100484.69;4887091;29;20065;-73
2024/04/05 07:55:14;;;;;;;5.25;2.35;;;;;;;7.38;36.82;100477.25;4884186;29;20694;-73
2024/04/05 07:57:40;;;;;;;3.80;2.00;;;;;;;7.69;36.20;100485.44;4884694;29;20048;-73
2024/04/05 08:00:13;;;;;;;2.65;1.63;;;;;;;7.70;36.14;100437.94;4885856;29;21859;-74
2024/04/05 08:03:00;;;;;;;6.00;2.20;;;;;;;7.88;35.94;100475.31;4899682;29;20140;-74
2024/04/05 08:05:26;;;;;;;3.20;2.20;;;;;;;8.08;35.37;100493.72;4884679;29;20158;-75
2024/04/05 08:07:53;;;;;;;7.18;2.42;;;;;;;7.94;35.42;100483.16;4884991;29;20041;-74
2024/04/05 08:10:19;;;;;;;4.25;2.22;;;;;;;7.92;35.50;100471.91;4868633;29;20100;-73
2024/04/05 08:12:46;;;;;;;3.72;2.30;;;;;;;8.07;35.48;100468.66;4853821;29;20420;-72
2024/04/05 08:15:12;;;;;;;4.07;2.42;;;;;;;8.54;35.19;100488.22;4868413;29;20050;-74
2024/04/05 08:17:38;;;;;;;5.65;2.47;;;;;;;9.61;35.56;100486.50;4868632;29;20058;-74
2024/04/05 08:20:05;;;;;;;2.67;2.25;;;;;;;11.09;33.59;100473.09;4868209;29;20099;-73
2024/04/05 08:22:32;;;;;;;4.95;2.53;;;;;;;11.65;32.61;100478.19;4899423;29;20068;-74
2024/04/05 08:24:58;;;;;;;4.07;2.50;;;;;;;12.81;32.24;100453.31;4884993;29;20044;-72
2024/04/05 08:27:24;;;;;;;6.97;3.45;;;;;;;15.86;30.27;100439.56;4889610;29;20040;-72
2024/04/05 08:29:51;;;;;;;8.18;3.15;;;;;;;17.17;28.81;100454.94;4889321;29;20045;-74
2024/04/05 08:32:18;;;;;;;4.15;3.00;;;;;;;17.86;28.19;100451.34;4872934;29;20091;-73
2024/04/05 08:34:44;;;;;;;3.67;3.22;;;;;;;18.02;26.99;100425.44;4888434;29;20052;-74
2024/04/05 08:37:10;;;;;;;4.97;3.30;;;;;;;18.82;26.06;100423.84;4902884;29;20049;-72
2024/04/05 08:39:37;;;;;;;3.70;3.30;;;;;;;19.72;25.15;100415.47;4871115;29;20056;-72
2024/04/05 08:42:14;;;;;;;7.18;3.70;;;;;;;19.30;24.21;100439.84;4870690;29;20131;-72
2024/04/05 08:44:47;;;;;;;4.70;3.70;;;;;;;19.01;24.09;100417.97;4871320;29;20503;-74
2024/04/05 08:47:14;;;;;;;9.05;3.70;;;;;;;18.88;23.69;100422.75;4871990;29;20123;-73
2024/04/05 08:49:43;;;;;;;5.30;3.88;;;;;;;20.92;23.92;100433.69;4871352;29;20614;-72
2024/04/05 08:52:09;;;;;;;4.95;3.58;;;;;;;22.93;21.84;100403.34;4886189;29;20043;-72
2024/04/05 08:54:35;;;;;;;5.65;4.28;;;;;;;23.30;20.58;100417.38;4886121;29;20076;-75
2024/04/05 08:57:01;;;;;;;6.95;4.40;;;;;;;22.75;20.09;100424.56;4870575;29;20040;-74
2024/04/05 08:59:28;;;;;;;8.75;4.20;;;;;;;22.90;19.49;100432.69;4872552;29;20079;-75
2024/04/05 09:01:58;;;;;;;6.50;4.75;;;;;;;23.43;20.14;100420.25;4887565;29;20551;-73
2024/04/05 09:04:31;;;;;;;7.32;4.85;;;;;;;24.02;18.90;100407.38;4902791;29;20522;-74
2024/04/05 09:06:58;;;;;;;6.35;4.88;;;;;;;25.68;18.71;100410.16;4886072;29;20084;-73
2024/04/05 09:09:29;;;;;;;6.55;4.63;;;;;;;26.49;18.15;100399.69;4888131;29;20069;-73
2024/04/05 09:12:14;;;;;;;6.32;4.20;;;;;;;27.93;17.28;100393.34;4855127;29;20525;-74
2024/04/05 09:14:41;;;;;;;7.43;4.75;;;;;;;28.18;16.32;100394.25;4888231;29;20047;-73
2024/04/05 09:17:14;;;;;;;12.30;4.88;;;;;;;27.36;16.48;100395.56;4890940;29;20818;-75
2024/04/05 09:19:41;;;;;;;6.15;4.88;;;;;;;27.39;16.09;100388.31;4888304;29;20052;-74
2024/04/05 09:22:08;;;;;;;9.85;4.57;;;;;;;28.05;15.71;100401.47;4901957;29;20055;-74
2024/04/05 09:24:35;;;;;;;6.28;4.50;;;;;;;27.08;15.44;100385.09;4884965;29;20515;-73
2024/04/05 09:27:08;;;;;;;8.40;4.97;;;;;;;27.24;15.42;100393.78;4886083;29;20084;-73
2024/04/05 09:29:34;;;;;;;6.30;4.70;;;;;;;28.01;15.08;100391.94;4870979;29;20044;-74
2024/04/05 09:32:00;;;;;;;4.93;4.43;;;;;;;26.30;15.29;100399.09;4886894;29;20052;-73
2024/04/05 09:34:29;;;;;;;9.43;5.40;;;;;;;26.29;15.19;100402.72;4876490;29;20062;-76
2024/04/05 09:36:59;;;;;;;6.32;5.20;;;;;;;26.90;15.39;100391.63;4886253;29;20065;-72
2024/04/05 09:39:26;;;;;;;5.97;4.68;;;;;;;28.19;14.76;100395.97;4853264;29;20155;-73
2024/04/05 09:42:01;;;;;;;5.63;4.78;;;;;;;29.09;14.14;100383.91;4872176;29;20537;-72
2024/04/05 09:44:28;;;;;;;4.90;4.22;;;;;;;29.48;13.82;100363.97;4867026;29;20202;-73
2024/04/05 09:46:57;;;;;;;6.47;4.60;;;;;;;29.02;13.43;100396.03;4866939;29;20538;-74
2024/04/05 09:49:23;;;;;;;6.72;4.80;;;;;;;29.22;13.96;100399.03;4867939;29;20045;-71
2024/04/05 09:51:54;;;;;;;6.47;5.03;;;;;;;29.55;13.24;100402.72;4867961;29;20045;-72
2024/04/05 09:54:24;;;;;;;5.07;4.57;;;;;;;29.67;13.53;100395.53;4855413;29;20143;-73
2024/04/05 09:56:51;;;;;;;8.55;4.95;;;;;;;30.50;13.06;100391.41;4869990;29;20080;-74
2024/04/05 09:59:24;;;;;;;6.32;4.30;;;;;;;30.39;12.59;100401.34;4868665;29;20080;-73
2024/04/05 10:01:51;;;;;;;5.20;4.70;;;;;;;30.91;12.82;100388.94;4867293;29;20121;-73
2024/04/05 10:04:19;;;;;;;7.80;4.57;;;;;;;31.86;11.86;100386.13;4868359;29;20036;-71
2024/04/05 10:06:47;;;;;;;5.90;4.40;;;;;;;32.35;11.81;100399.66;4851446;29;20175;-73
2024/04/05 10:09:22;;;;;;;5.18;4.50;;;;;;;32.04;11.13;100383.63;4865049;29;20055;-73
2024/04/05 10:11:52;;;;;;;5.35;4.07;;;;;;;31.64;11.34;100392.56;4850244;29;20136;-73
2024/04/05 10:14:26;;;;;;;8.32;4.55;;;;;;;31.49;11.69;100402.84;4867989;29;20055;-75
2024/04/05 10:16:52;;;;;;;6.80;4.72;;;;;;;31.75;11.53;100395.16;4851139;29;20505;-73
2024/04/05 10:19:45;;;;;;;7.95;4.72;;;;;;;32.22;11.58;100385.63;4851112;29;20517;-73
2024/04/05 10:22:19;;;;;;;7.00;4.72;;;;;;;32.53;11.15;100394.44;4850771;29;20052;-72
2024/04/05 10:24:45;;;;;;;8.32;4.63;;;;;;;31.94;10.35;100393.50;4850268;29;20041;-74
2024/04/05 10:27:22;;;;;;;5.53;4.55;;;;;;;31.16;11.37;100376.09;4866082;29;20066;-74
2024/04/05 10:29:58;;;;;;;7.63;4.78;;;;;;;30.91;11.20;100382.69;4867222;29;20049;-72
2024/04/05 10:32:25;;;;;;;7.05;4.28;;;;;;;30.74;11.50;100389.53;4866418;29;20057;-74
2024/04/05 10:34:51;;;;;;;6.90;4.90;;;;;;;30.28;11.51;100387.00;4849941;29;20041;-75
2024/04/05 10:37:17;;;;;;;8.40;4.53;;;;;;;29.15;11.32;100386.09;4867260;29;20061;-73
2024/04/05 10:39:43;;;;;;;8.32;4.40;;;;;;;28.38;11.98;100394.59;4886656;29;20040;-74
2024/04/05 10:42:10;;;;;;;5.50;4.25;;;;;;;27.08;12.07;100390.44;4868747;29;20100;-73
2024/04/05 10:44:37;;;;;;;7.57;4.65;;;;;;;24.90;12.87;100401.50;4881754;29;20069;-74
2024/04/05 10:47:06;;;;;;;7.45;4.50;;;;;;;23.14;13.63;100404.91;4867995;29;20048;-73
2024/04/05 10:49:33;;;;;;;5.25;4.22;;;;;;;21.14;14.38;100402.81;4882267;29;20148;-74
2024/04/05 10:51:59;;;;;;;6.53;4.30;;;;;;;19.82;14.92;100379.84;4899703;29;20055;-74
2024/04/05 10:54:25;;;;;;;5.82;4.35;;;;;;;18.90;15.85;100398.06;4900132;29;20032;-73
2024/04/05 10:56:52;;;;;;;4.55;4.15;;;;;;;18.35;16.31;100411.28;4871309;29;20074;-73
2024/04/05 10:59:18;;;;;;;7.32;3.95;;;;;;;17.49;16.66;100415.53;4884813;29;20127;-73
2024/04/05 11:01:49;;;;;;;8.52;4.40;;;;;;;16.77;17.55;100437.50;4894179;29;20059;-73
2024/04/05 11:04:23;;;;;;;5.87;4.20;;;;;;;15.99;17.79;100435.78;4876153;29;20225;-73
2024/04/05 11:06:59;;;;;;;7.43;4.35;;;;;;;15.38;18.54;100436.06;4886070;29;20060;-73
2024/04/05 11:09:33;;;;;;;10.82;4.65;;;;;;;14.98;18.77;100439.41;4868853;29;20076;-73
2024/04/05 11:12:00;;;;;;;9.20;4.18;;;;;;;14.23;19.42;100418.72;4885788;29;20047;-73
2024/04/05 11:14:27;;;;;;;6.82;4.90;;;;;;;13.59;19.67;100432.56;4872535;29;20419;-74
2024/04/05 11:17:02;;;;;;;8.45;4.70;;;;;;;13.29;20.14;100436.34;4885678;29;20040;-72
2024/04/05 11:19:29;;;;;;;7.53;4.97;;;;;;;12.78;20.02;100453.31;4867946;29;20048;-73
2024/04/05 11:22:03;;;;;;;5.60;3.80;;;;;;;12.34;21.27;100429.28;4867846;29;20093;-73
2024/04/05 11:24:30;;;;;;;6.07;4.07;;;;;;;12.11;21.59;100442.44;4867522;29;20571;-72
2024/04/05 11:26:56;;;;;;;8.32;4.32;;;;;;;11.67;22.33;100410.44;4885961;29;20048;-73
2024/04/05 11:29:22;;;;;;;6.32;4.05;;;;;;;11.58;22.22;100440.88;4886526;29;20037;-73
2024/04/05 11:31:48;;;;;;;5.47;3.90;;;;;;;11.46;22.53;100451.34;4883722;29;20063;-73
2024/04/05 11:34:14;;;;;;;13.02;4.20;;;;;;;11.27;23.02;100427.03;4885554;29;20064;-73